sensor_id;sensor_type;location;lat;lon;timestamp;temperature;humidity
47414;DHT22;33163;0.000;0.000;2023-02-28T00:01:05;18.90;39.60
47414;DHT22;33163;0.000;0.000;2023-02-28T00:03:33;18.90;39.60
47414;DHT22;33163;0.000;0.000;2023-02-28T00:06:01;18.80;39.60
47414;DHT22;33163;0.000;0.000;2023-02-28T00:08:28;18.80;39.70
47414;DHT22;33163;0.000;0.000;2023-02-28T00:10:54;18.80;39.70
47414;DHT22;33163;0.000;0.000;2023-02-28T00:13:21;18.80;39.70
47414;DHT22;33163;0.000;0.000;2023-02-28T00:15:58;18.80;39.70
47414;DHT22;33163;0.000;0.000;2023-02-28T00:18:25;18.80;39.70
47414;DHT22;33163;0.000;0.000;2023-02-28T00:20:52;18.80;39.80
47414;DHT22;33163;0.000;0.000;2023-02-28T00:23:19;18.80;39.80
47414;DHT22;33163;0.000;0.000;2023-02-28T00:25:45;18.80;39.80
47414;DHT22;33163;0.000;0.000;2023-02-28T00:28:12;18.70;39.90
47414;DHT22;33163;0.000;0.000;2023-02-28T00:30:39;18.80;40.10
47414;DHT22;33163;0.000;0.000;2023-02-28T00:33:07;18.80;40.10
47414;DHT22;33163;0.000;0.000;2023-02-28T00:35:34;18.80;40.00
47414;DHT22;33163;0.000;0.000;2023-02-28T00:38:00;18.80;40.10
47414;DHT22;33163;0.000;0.000;2023-02-28T00:40:27;18.80;40.00
47414;DHT22;33163;0.000;0.000;2023-02-28T00:42:54;18.70;40.00
47414;DHT22;33163;0.000;0.000;2023-02-28T00:45:21;18.70;40.10
47414;DHT22;33163;0.000;0.000;2023-02-28T00:47:48;18.70;40.20
47414;DHT22;33163;0.000;0.000;2023-02-28T00:50:17;18.70;40.10
47414;DHT22;33163;0.000;0.000;2023-02-28T00:52:44;18.70;40.30
47414;DHT22;33163;0.000;0.000;2023-02-28T00:55:11;18.70;40.20
47414;DHT22;33163;0.000;0.000;2023-02-28T00:57:38;18.70;40.20
47414;DHT22;33163;0.000;0.000;2023-02-28T01:00:06;18.70;40.20
47414;DHT22;33163;0.000;0.000;2023-02-28T01:02:34;18.70;40.30
47414;DHT22;33163;0.000;0.000;2023-02-28T01:05:01;18.70;40.30
47414;DHT22;33163;0.000;0.000;2023-02-28T01:07:29;18.70;40.30
47414;DHT22;33163;0.000;0.000;2023-02-28T01:09:56;18.70;40.40
47414;DHT22;33163;0.000;0.000;2023-02-28T01:12:22;18.60;40.40
47414;DHT22;33163;0.000;0.000;2023-02-28T01:14:49;18.70;40.50
47414;DHT22;33163;0.000;0.000;2023-02-28T01:17:16;18.70;40.40
47414;DHT22;33163;0.000;0.000;2023-02-28T01:19:43;18.70;40.50
47414;DHT22;33163;0.000;0.000;2023-02-28T01:22:09;18.70;40.50
47414;DHT22;33163;0.000;0.000;2023-02-28T01:24:37;18.70;40.40
47414;DHT22;33163;0.000;0.000;2023-02-28T01:27:04;18.70;40.40
47414;DHT22;33163;0.000;0.000;2023-02-28T01:29:31;18.70;40.40
47414;DHT22;33163;0.000;0.000;2023-02-28T01:31:57;18.70;40.60
47414;DHT22;33163;0.000;0.000;2023-02-28T01:34:25;18.70;40.50
47414;DHT22;33163;0.000;0.000;2023-02-28T01:36:52;18.70;40.50
47414;DHT22;33163;0.000;0.000;2023-02-28T01:39:19;18.80;40.40
47414;DHT22;33163;0.000;0.000;2023-02-28T01:41:47;18.80;40.40
47414;DHT22;33163;0.000;0.000;2023-02-28T01:47:20;18.80;41.00
47414;DHT22;33163;0.000;0.000;2023-02-28T01:49:47;18.80;40.40
47414;DHT22;33163;0.000;0.000;2023-02-28T01:52:15;18.80;40.40
47414;DHT22;33163;0.000;0.000;2023-02-28T01:54:47;18.80;40.40
47414;DHT22;33163;0.000;0.000;2023-02-28T01:57:19;18.80;40.40
47414;DHT22;33163;0.000;0.000;2023-02-28T01:59:49;18.80;40.50
47414;DHT22;33163;0.000;0.000;2023-02-28T02:02:22;18.70;40.40
47414;DHT22;33163;0.000;0.000;2023-02-28T02:04:53;18.70;40.50
47414;DHT22;33163;0.000;0.000;2023-02-28T02:07:21;18.70;40.50
47414;DHT22;33163;0.000;0.000;2023-02-28T02:09:49;18.70;40.60
47414;DHT22;33163;0.000;0.000;2023-02-28T02:12:24;18.60;40.60
47414;DHT22;33163;0.000;0.000;2023-02-28T02:15:01;18.60;40.60
47414;DHT22;33163;0.000;0.000;2023-02-28T02:17:31;18.60;40.70
47414;DHT22;33163;0.000;0.000;2023-02-28T02:20:38;18.60;40.70
47414;DHT22;33163;0.000;0.000;2023-02-28T02:23:33;18.60;40.70
47414;DHT22;33163;0.000;0.000;2023-02-28T02:26:43;18.60;40.70
47414;DHT22;33163;0.000;0.000;2023-02-28T02:29:43;18.60;40.70
47414;DHT22;33163;0.000;0.000;2023-02-28T02:32:39;18.60;40.70
47414;DHT22;33163;0.000;0.000;2023-02-28T02:35:15;18.60;40.80
47414;DHT22;33163;0.000;0.000;2023-02-28T02:37:48;18.60;40.90
47414;DHT22;33163;0.000;0.000;2023-02-28T02:40:20;18.60;41.00
47414;DHT22;33163;0.000;0.000;2023-02-28T02:42:51;18.60;41.00
47414;DHT22;33163;0.000;0.000;2023-02-28T02:45:25;18.60;40.90
47414;DHT22;33163;0.000;0.000;2023-02-28T02:47:54;18.60;40.90
47414;DHT22;33163;0.000;0.000;2023-02-28T02:50:26;18.60;41.00
47414;DHT22;33163;0.000;0.000;2023-02-28T02:52:56;18.60;41.00
47414;DHT22;33163;0.000;0.000;2023-02-28T02:55:25;18.60;41.00
47414;DHT22;33163;0.000;0.000;2023-02-28T02:57:54;18.50;41.00
47414;DHT22;33163;0.000;0.000;2023-02-28T03:00:25;18.50;41.10
47414;DHT22;33163;0.000;0.000;2023-02-28T03:02:54;18.50;41.20
47414;DHT22;33163;0.000;0.000;2023-02-28T03:05:25;18.50;41.10
47414;DHT22;33163;0.000;0.000;2023-02-28T03:07:52;18.60;41.10
47414;DHT22;33163;0.000;0.000;2023-02-28T03:10:29;18.50;41.10
47414;DHT22;33163;0.000;0.000;2023-02-28T03:13:04;18.50;41.20
47414;DHT22;33163;0.000;0.000;2023-02-28T03:15:42;18.50;41.20
47414;DHT22;33163;0.000;0.000;2023-02-28T03:18:19;18.50;41.20
47414;DHT22;33163;0.000;0.000;2023-02-28T03:20:56;18.50;41.30
47414;DHT22;33163;0.000;0.000;2023-02-28T03:23:32;18.50;41.30
47414;DHT22;33163;0.000;0.000;2023-02-28T03:26:04;18.50;41.30
47414;DHT22;33163;0.000;0.000;2023-02-28T03:28:36;18.50;41.30
47414;DHT22;33163;0.000;0.000;2023-02-28T03:31:10;18.50;42.10
47414;DHT22;33163;0.000;0.000;2023-02-28T03:33:43;18.50;41.40
47414;DHT22;33163;0.000;0.000;2023-02-28T03:36:14;18.50;41.40
47414;DHT22;33163;0.000;0.000;2023-02-28T03:38:46;18.50;41.50
47414;DHT22;33163;0.000;0.000;2023-02-28T03:41:17;18.50;41.50
47414;DHT22;33163;0.000;0.000;2023-02-28T03:43:50;18.50;41.50
47414;DHT22;33163;0.000;0.000;2023-02-28T03:46:21;18.60;41.40
47414;DHT22;33163;0.000;0.000;2023-02-28T03:48:52;18.60;41.40
47414;DHT22;33163;0.000;0.000;2023-02-28T03:51:22;18.60;41.40
47414;DHT22;33163;0.000;0.000;2023-02-28T03:53:53;18.60;41.40
47414;DHT22;33163;0.000;0.000;2023-02-28T03:56:24;18.70;41.40
47414;DHT22;33163;0.000;0.000;2023-02-28T03:58:57;18.70;41.40
47414;DHT22;33163;0.000;0.000;2023-02-28T04:01:28;18.70;41.40
47414;DHT22;33163;0.000;0.000;2023-02-28T04:03:56;18.70;41.40
47414;DHT22;33163;0.000;0.000;2023-02-28T04:06:25;18.70;41.40
47414;DHT22;33163;0.000;0.000;2023-02-28T04:08:52;18.70;41.50
47414;DHT22;33163;0.000;0.000;2023-02-28T04:11:22;18.60;41.40
47414;DHT22;33163;0.000;0.000;2023-02-28T04:13:49;18.60;41.50
47414;DHT22;33163;0.000;0.000;2023-02-28T04:16:16;18.60;41.50
47414;DHT22;33163;0.000;0.000;2023-02-28T04:18:43;18.70;41.50
47414;DHT22;33163;0.000;0.000;2023-02-28T04:21:10;18.70;41.60
47414;DHT22;33163;0.000;0.000;2023-02-28T04:23:38;18.70;41.50
47414;DHT22;33163;0.000;0.000;2023-02-28T04:26:05;18.70;41.50
47414;DHT22;33163;0.000;0.000;2023-02-28T04:28:33;18.70;41.60
47414;DHT22;33163;0.000;0.000;2023-02-28T04:31:03;18.60;41.50
47414;DHT22;33163;0.000;0.000;2023-02-28T04:33:32;18.70;41.60
47414;DHT22;33163;0.000;0.000;2023-02-28T04:36:00;18.60;41.60
47414;DHT22;33163;0.000;0.000;2023-02-28T04:38:28;18.60;41.70
47414;DHT22;33163;0.000;0.000;2023-02-28T04:40:58;18.60;41.70
47414;DHT22;33163;0.000;0.000;2023-02-28T04:43:26;18.60;41.80
47414;DHT22;33163;0.000;0.000;2023-02-28T04:45:52;18.50;41.80
47414;DHT22;33163;0.000;0.000;2023-02-28T04:48:19;18.50;41.80
47414;DHT22;33163;0.000;0.000;2023-02-28T04:50:46;18.50;41.90
47414;DHT22;33163;0.000;0.000;2023-02-28T04:53:13;18.50;42.00
47414;DHT22;33163;0.000;0.000;2023-02-28T04:55:40;18.50;42.00
47414;DHT22;33163;0.000;0.000;2023-02-28T04:58:08;18.50;42.00
47414;DHT22;33163;0.000;0.000;2023-02-28T05:00:34;18.50;42.00
47414;DHT22;33163;0.000;0.000;2023-02-28T05:03:01;18.50;42.00
47414;DHT22;33163;0.000;0.000;2023-02-28T05:05:28;18.50;42.10
47414;DHT22;33163;0.000;0.000;2023-02-28T05:07:55;18.40;42.00
47414;DHT22;33163;0.000;0.000;2023-02-28T05:10:22;18.40;42.00
47414;DHT22;33163;0.000;0.000;2023-02-28T05:12:49;18.40;42.10
47414;DHT22;33163;0.000;0.000;2023-02-28T05:15:17;18.40;42.20
47414;DHT22;33163;0.000;0.000;2023-02-28T05:17:45;18.40;42.20
47414;DHT22;33163;0.000;0.000;2023-02-28T05:20:13;18.40;42.20
47414;DHT22;33163;0.000;0.000;2023-02-28T05:22:40;18.40;42.20
47414;DHT22;33163;0.000;0.000;2023-02-28T05:25:08;18.40;42.20
47414;DHT22;33163;0.000;0.000;2023-02-28T05:27:37;18.40;42.20
47414;DHT22;33163;0.000;0.000;2023-02-28T05:30:05;18.40;42.20
47414;DHT22;33163;0.000;0.000;2023-02-28T05:32:37;18.40;42.20
47414;DHT22;33163;0.000;0.000;2023-02-28T05:35:04;18.40;42.30
47414;DHT22;33163;0.000;0.000;2023-02-28T05:37:31;18.40;42.30
47414;DHT22;33163;0.000;0.000;2023-02-28T05:39:58;18.40;42.20
47414;DHT22;33163;0.000;0.000;2023-02-28T05:42:25;18.40;42.20
47414;DHT22;33163;0.000;0.000;2023-02-28T05:44:51;18.40;42.30
47414;DHT22;33163;0.000;0.000;2023-02-28T05:47:18;18.40;42.20
47414;DHT22;33163;0.000;0.000;2023-02-28T05:49:46;18.40;42.30
47414;DHT22;33163;0.000;0.000;2023-02-28T05:52:13;18.40;42.30
47414;DHT22;33163;0.000;0.000;2023-02-28T05:54:40;18.40;42.30
47414;DHT22;33163;0.000;0.000;2023-02-28T05:57:07;18.40;42.30
47414;DHT22;33163;0.000;0.000;2023-02-28T05:59:33;18.40;42.30
47414;DHT22;33163;0.000;0.000;2023-02-28T06:02:00;18.40;42.30
47414;DHT22;33163;0.000;0.000;2023-02-28T06:04:27;18.40;42.30
47414;DHT22;33163;0.000;0.000;2023-02-28T06:06:55;18.40;42.20
47414;DHT22;33163;0.000;0.000;2023-02-28T06:09:23;18.40;42.10
47414;DHT22;33163;0.000;0.000;2023-02-28T06:11:50;18.40;42.20
47414;DHT22;33163;0.000;0.000;2023-02-28T06:14:18;18.40;42.10
47414;DHT22;33163;0.000;0.000;2023-02-28T06:16:46;18.50;42.00
47414;DHT22;33163;0.000;0.000;2023-02-28T06:19:13;18.50;42.00
47414;DHT22;33163;0.000;0.000;2023-02-28T06:21:40;18.50;41.80
47414;DHT22;33163;0.000;0.000;2023-02-28T06:24:09;18.50;41.80
47414;DHT22;33163;0.000;0.000;2023-02-28T06:26:35;18.60;41.80
47414;DHT22;33163;0.000;0.000;2023-02-28T06:29:02;18.60;41.70
47414;DHT22;33163;0.000;0.000;2023-02-28T06:31:29;18.60;41.70
47414;DHT22;33163;0.000;0.000;2023-02-28T06:33:56;18.60;41.70
47414;DHT22;33163;0.000;0.000;2023-02-28T06:36:23;18.60;41.70
47414;DHT22;33163;0.000;0.000;2023-02-28T06:38:49;18.60;41.70
47414;DHT22;33163;0.000;0.000;2023-02-28T06:41:22;18.60;41.70
47414;DHT22;33163;0.000;0.000;2023-02-28T06:43:48;18.60;41.60
47414;DHT22;33163;0.000;0.000;2023-02-28T06:46:15;18.60;41.60
47414;DHT22;33163;0.000;0.000;2023-02-28T06:48:43;18.60;41.60
47414;DHT22;33163;0.000;0.000;2023-02-28T06:51:13;18.60;41.50
47414;DHT22;33163;0.000;0.000;2023-02-28T06:53:40;18.60;41.60
47414;DHT22;33163;0.000;0.000;2023-02-28T06:56:09;18.50;41.50
47414;DHT22;33163;0.000;0.000;2023-02-28T06:58:37;18.50;41.60
47414;DHT22;33163;0.000;0.000;2023-02-28T07:01:06;18.50;41.60
47414;DHT22;33163;0.000;0.000;2023-02-28T07:03:34;18.50;41.60
47414;DHT22;33163;0.000;0.000;2023-02-28T07:06:01;18.40;41.60
47414;DHT22;33163;0.000;0.000;2023-02-28T07:08:29;18.40;41.70
47414;DHT22;33163;0.000;0.000;2023-02-28T07:10:57;18.40;41.70
47414;DHT22;33163;0.000;0.000;2023-02-28T07:13:24;18.40;41.70
47414;DHT22;33163;0.000;0.000;2023-02-28T07:15:56;18.30;41.70
47414;DHT22;33163;0.000;0.000;2023-02-28T07:18:23;18.40;41.80
47414;DHT22;33163;0.000;0.000;2023-02-28T07:20:50;18.40;41.70
47414;DHT22;33163;0.000;0.000;2023-02-28T07:23:17;18.40;41.70
47414;DHT22;33163;0.000;0.000;2023-02-28T07:25:44;18.40;41.70
47414;DHT22;33163;0.000;0.000;2023-02-28T07:28:12;18.40;41.70
47414;DHT22;33163;0.000;0.000;2023-02-28T07:30:39;18.30;41.60
47414;DHT22;33163;0.000;0.000;2023-02-28T07:33:08;18.30;41.70
47414;DHT22;33163;0.000;0.000;2023-02-28T07:35:34;18.30;41.60
47414;DHT22;33163;0.000;0.000;2023-02-28T07:38:01;18.30;41.70
47414;DHT22;33163;0.000;0.000;2023-02-28T07:40:29;18.30;41.70
47414;DHT22;33163;0.000;0.000;2023-02-28T07:42:56;18.30;41.70
47414;DHT22;33163;0.000;0.000;2023-02-28T07:45:22;18.30;41.60
47414;DHT22;33163;0.000;0.000;2023-02-28T07:47:49;18.30;41.60
47414;DHT22;33163;0.000;0.000;2023-02-28T07:50:17;18.30;41.70
47414;DHT22;33163;0.000;0.000;2023-02-28T07:52:44;18.30;41.70
47414;DHT22;33163;0.000;0.000;2023-02-28T07:55:11;18.20;41.60
47414;DHT22;33163;0.000;0.000;2023-02-28T07:57:39;18.20;41.70
47414;DHT22;33163;0.000;0.000;2023-02-28T08:00:11;18.20;41.80
47414;DHT22;33163;0.000;0.000;2023-02-28T08:02:39;18.30;41.70
47414;DHT22;33163;0.000;0.000;2023-02-28T08:05:07;18.30;41.70
47414;DHT22;33163;0.000;0.000;2023-02-28T08:07:35;18.30;41.70
47414;DHT22;33163;0.000;0.000;2023-02-28T08:10:02;18.20;41.70
47414;DHT22;33163;0.000;0.000;2023-02-28T08:12:31;18.20;41.70
47414;DHT22;33163;0.000;0.000;2023-02-28T08:14:57;18.20;41.70
47414;DHT22;33163;0.000;0.000;2023-02-28T08:17:24;18.20;41.80
47414;DHT22;33163;0.000;0.000;2023-02-28T08:19:51;18.20;41.80
47414;DHT22;33163;0.000;0.000;2023-02-28T08:22:18;18.20;41.80
47414;DHT22;33163;0.000;0.000;2023-02-28T08:24:46;18.20;41.70
47414;DHT22;33163;0.000;0.000;2023-02-28T08:27:13;18.20;41.80
47414;DHT22;33163;0.000;0.000;2023-02-28T08:29:39;18.20;41.80
47414;DHT22;33163;0.000;0.000;2023-02-28T08:32:07;18.20;41.80
47414;DHT22;33163;0.000;0.000;2023-02-28T08:34:34;18.20;41.80
47414;DHT22;33163;0.000;0.000;2023-02-28T08:37:00;18.20;41.80
47414;DHT22;33163;0.000;0.000;2023-02-28T08:39:27;18.20;41.70
47414;DHT22;33163;0.000;0.000;2023-02-28T08:41:55;18.20;41.80
47414;DHT22;33163;0.000;0.000;2023-02-28T08:44:22;18.30;41.70
47414;DHT22;33163;0.000;0.000;2023-02-28T08:46:49;18.30;41.70
47414;DHT22;33163;0.000;0.000;2023-02-28T08:49:15;18.30;41.70
47414;DHT22;33163;0.000;0.000;2023-02-28T08:51:42;18.30;41.70
47414;DHT22;33163;0.000;0.000;2023-02-28T08:54:09;18.30;41.70
47414;DHT22;33163;0.000;0.000;2023-02-28T08:56:38;18.30;41.70
47414;DHT22;33163;0.000;0.000;2023-02-28T08:59:06;18.40;41.70
47414;DHT22;33163;0.000;0.000;2023-02-28T09:01:35;18.40;41.60
47414;DHT22;33163;0.000;0.000;2023-02-28T09:04:02;18.40;41.60
47414;DHT22;33163;0.000;0.000;2023-02-28T09:06:29;18.40;41.60
47414;DHT22;33163;0.000;0.000;2023-02-28T09:08:57;18.30;41.50
47414;DHT22;33163;0.000;0.000;2023-02-28T09:11:25;18.40;41.70
47414;DHT22;33163;0.000;0.000;2023-02-28T09:13:52;18.30;41.60
47414;DHT22;33163;0.000;0.000;2023-02-28T09:16:20;18.30;41.60
47414;DHT22;33163;0.000;0.000;2023-02-28T09:18:47;18.30;41.70
47414;DHT22;33163;0.000;0.000;2023-02-28T09:21:16;18.30;41.70
47414;DHT22;33163;0.000;0.000;2023-02-28T09:23:44;18.20;41.70
47414;DHT22;33163;0.000;0.000;2023-02-28T09:26:13;18.20;41.70
47414;DHT22;33163;0.000;0.000;2023-02-28T09:28:40;18.20;41.80
47414;DHT22;33163;0.000;0.000;2023-02-28T09:31:12;18.20;41.80
47414;DHT22;33163;0.000;0.000;2023-02-28T09:33:40;18.20;41.90
47414;DHT22;33163;0.000;0.000;2023-02-28T09:36:08;18.20;41.90
47414;DHT22;33163;0.000;0.000;2023-02-28T09:38:35;18.20;42.00
47414;DHT22;33163;0.000;0.000;2023-02-28T09:41:08;18.20;41.90
47414;DHT22;33163;0.000;0.000;2023-02-28T09:43:39;18.20;42.00
47414;DHT22;33163;0.000;0.000;2023-02-28T09:46:14;18.20;42.00
47414;DHT22;33163;0.000;0.000;2023-02-28T09:48:46;18.20;42.00
47414;DHT22;33163;0.000;0.000;2023-02-28T09:51:27;18.10;42.00
47414;DHT22;33163;0.000;0.000;2023-02-28T09:53:54;18.10;42.10
47414;DHT22;33163;0.000;0.000;2023-02-28T09:56:24;18.20;42.20
47414;DHT22;33163;0.000;0.000;2023-02-28T09:58:56;18.20;42.20
47414;DHT22;33163;0.000;0.000;2023-02-28T10:01:27;18.20;42.20
47414;DHT22;33163;0.000;0.000;2023-02-28T10:04:02;18.20;42.20
47414;DHT22;33163;0.000;0.000;2023-02-28T10:06:34;18.20;42.20
47414;DHT22;33163;0.000;0.000;2023-02-28T10:09:05;18.10;42.20
47414;DHT22;33163;0.000;0.000;2023-02-28T10:11:37;18.10;42.30
47414;DHT22;33163;0.000;0.000;2023-02-28T10:14:11;18.10;42.40
47414;DHT22;33163;0.000;0.000;2023-02-28T10:16:42;18.10;42.40
47414;DHT22;33163;0.000;0.000;2023-02-28T10:19:16;18.10;42.30
47414;DHT22;33163;0.000;0.000;2023-02-28T10:21:49;18.10;42.30
47414;DHT22;33163;0.000;0.000;2023-02-28T10:24:23;18.10;42.30
47414;DHT22;33163;0.000;0.000;2023-02-28T10:26:58;18.10;42.30
47414;DHT22;33163;0.000;0.000;2023-02-28T10:29:26;18.10;42.50
47414;DHT22;33163;0.000;0.000;2023-02-28T10:31:53;18.10;42.50
47414;DHT22;33163;0.000;0.000;2023-02-28T10:34:21;18.10;42.50
47414;DHT22;33163;0.000;0.000;2023-02-28T10:36:49;18.10;42.50
47414;DHT22;33163;0.000;0.000;2023-02-28T10:39:36;18.20;42.40
47414;DHT22;33163;0.000;0.000;2023-02-28T10:42:04;18.10;42.40
47414;DHT22;33163;0.000;0.000;2023-02-28T10:44:31;18.10;42.40
47414;DHT22;33163;0.000;0.000;2023-02-28T10:46:58;18.10;42.40
47414;DHT22;33163;0.000;0.000;2023-02-28T10:49:27;18.10;42.50
47414;DHT22;33163;0.000;0.000;2023-02-28T10:51:56;18.10;42.50
47414;DHT22;33163;0.000;0.000;2023-02-28T10:54:30;18.10;42.40
47414;DHT22;33163;0.000;0.000;2023-02-28T10:57:07;18.10;42.30
47414;DHT22;33163;0.000;0.000;2023-02-28T10:59:34;18.10;42.30
47414;DHT22;33163;0.000;0.000;2023-02-28T11:02:02;18.10;42.30
47414;DHT22;33163;0.000;0.000;2023-02-28T11:04:35;18.00;42.30
47414;DHT22;33163;0.000;0.000;2023-02-28T11:07:05;18.00;42.20
47414;DHT22;33163;0.000;0.000;2023-02-28T11:09:34;18.00;42.30
47414;DHT22;33163;0.000;0.000;2023-02-28T11:12:02;18.10;42.50
47414;DHT22;33163;0.000;0.000;2023-02-28T11:14:34;18.20;42.50
47414;DHT22;33163;0.000;0.000;2023-02-28T11:17:13;18.30;42.50
47414;DHT22;33163;0.000;0.000;2023-02-28T11:19:45;18.30;42.30
47414;DHT22;33163;0.000;0.000;2023-02-28T11:22:17;18.40;42.60
47414;DHT22;33163;0.000;0.000;2023-02-28T11:24:47;18.50;42.90
47414;DHT22;33163;0.000;0.000;2023-02-28T11:27:26;18.50;43.00
47414;DHT22;33163;0.000;0.000;2023-02-28T11:30:23;18.60;43.20
47414;DHT22;33163;0.000;0.000;2023-02-28T11:32:51;18.70;43.10
47414;DHT22;33163;0.000;0.000;2023-02-28T11:35:24;18.80;43.20
47414;DHT22;33163;0.000;0.000;2023-02-28T11:37:52;18.80;43.10
47414;DHT22;33163;0.000;0.000;2023-02-28T11:40:25;18.90;43.10
47414;DHT22;33163;0.000;0.000;2023-02-28T11:43:02;19.00;43.10
47414;DHT22;33163;0.000;0.000;2023-02-28T11:45:45;19.10;43.20
47414;DHT22;33163;0.000;0.000;2023-02-28T11:48:21;19.10;43.10
47414;DHT22;33163;0.000;0.000;2023-02-28T11:51:06;19.20;43.10
47414;DHT22;33163;0.000;0.000;2023-02-28T11:53:42;19.30;43.00
47414;DHT22;33163;0.000;0.000;2023-02-28T11:56:18;19.40;42.90
47414;DHT22;33163;0.000;0.000;2023-02-28T11:58:53;19.40;42.50
47414;DHT22;33163;0.000;0.000;2023-02-28T12:01:32;19.30;42.20
47414;DHT22;33163;0.000;0.000;2023-02-28T12:04:14;19.30;42.20
47414;DHT22;33163;0.000;0.000;2023-02-28T12:06:50;19.30;42.20
47414;DHT22;33163;0.000;0.000;2023-02-28T12:09:34;19.20;42.30
47414;DHT22;33163;0.000;0.000;2023-02-28T12:12:07;19.20;42.30
47414;DHT22;33163;0.000;0.000;2023-02-28T12:15:13;19.30;42.50
47414;DHT22;33163;0.000;0.000;2023-02-28T12:17:55;19.30;42.20
47414;DHT22;33163;0.000;0.000;2023-02-28T12:20:33;19.30;42.30
47414;DHT22;33163;0.000;0.000;2023-02-28T12:23:17;19.30;42.20
47414;DHT22;33163;0.000;0.000;2023-02-28T12:25:55;19.20;42.10
47414;DHT22;33163;0.000;0.000;2023-02-28T12:28:30;19.20;42.30
47414;DHT22;33163;0.000;0.000;2023-02-28T12:31:00;19.20;42.10
47414;DHT22;33163;0.000;0.000;2023-02-28T12:33:32;19.20;42.00
47414;DHT22;33163;0.000;0.000;2023-02-28T12:36:04;19.20;41.90
47414;DHT22;33163;0.000;0.000;2023-02-28T12:38:37;19.20;41.80
47414;DHT22;33163;0.000;0.000;2023-02-28T12:41:10;19.20;41.80
47414;DHT22;33163;0.000;0.000;2023-02-28T12:43:44;19.30;41.80
47414;DHT22;33163;0.000;0.000;2023-02-28T12:46:16;19.30;41.80
47414;DHT22;33163;0.000;0.000;2023-02-28T12:48:47;19.30;41.80
47414;DHT22;33163;0.000;0.000;2023-02-28T12:51:15;19.30;41.70
47414;DHT22;33163;0.000;0.000;2023-02-28T12:53:53;19.30;41.80
47414;DHT22;33163;0.000;0.000;2023-02-28T12:56:29;19.40;41.80
47414;DHT22;33163;0.000;0.000;2023-02-28T12:58:58;19.40;41.60
47414;DHT22;33163;0.000;0.000;2023-02-28T13:01:38;19.40;41.50
47414;DHT22;33163;0.000;0.000;2023-02-28T13:07:32;19.40;41.40
47414;DHT22;33163;0.000;0.000;2023-02-28T13:10:05;19.50;41.40
47414;DHT22;33163;0.000;0.000;2023-02-28T13:12:33;19.50;41.40
47414;DHT22;33163;0.000;0.000;2023-02-28T13:15:05;19.50;41.40
47414;DHT22;33163;0.000;0.000;2023-02-28T13:17:38;19.60;41.50
47414;DHT22;33163;0.000;0.000;2023-02-28T13:20:15;19.50;41.50
47414;DHT22;33163;0.000;0.000;2023-02-28T13:22:45;19.50;41.50
47414;DHT22;33163;0.000;0.000;2023-02-28T13:34:36;19.50;41.40
47414;DHT22;33163;0.000;0.000;2023-02-28T13:37:34;19.50;41.30
47414;DHT22;33163;0.000;0.000;2023-02-28T13:40:27;19.50;41.40
47414;DHT22;33163;0.000;0.000;2023-02-28T13:42:54;19.50;41.20
47414;DHT22;33163;0.000;0.000;2023-02-28T13:45:24;19.50;41.20
47414;DHT22;33163;0.000;0.000;2023-02-28T13:47:53;19.40;41.00
47414;DHT22;33163;0.000;0.000;2023-02-28T13:50:30;19.30;40.50
47414;DHT22;33163;0.000;0.000;2023-02-28T13:53:16;19.30;40.60
47414;DHT22;33163;0.000;0.000;2023-02-28T13:55:49;19.30;40.90
47414;DHT22;33163;0.000;0.000;2023-02-28T13:58:31;19.30;41.60
47414;DHT22;33163;0.000;0.000;2023-02-28T14:01:37;19.40;40.90
47414;DHT22;33163;0.000;0.000;2023-02-28T14:04:37;19.30;41.60
47414;DHT22;33163;0.000;0.000;2023-02-28T14:07:09;19.30;42.10
47414;DHT22;33163;0.000;0.000;2023-02-28T14:09:49;19.40;42.40
47414;DHT22;33163;0.000;0.000;2023-02-28T14:12:56;19.40;42.80
47414;DHT22;33163;0.000;0.000;2023-02-28T14:15:34;19.50;43.00
47414;DHT22;33163;0.000;0.000;2023-02-28T14:18:05;19.70;42.50
47414;DHT22;33163;0.000;0.000;2023-02-28T14:20:33;19.90;42.40
47414;DHT22;33163;0.000;0.000;2023-02-28T14:23:06;20.00;42.30
47414;DHT22;33163;0.000;0.000;2023-02-28T14:25:41;20.00;42.30
47414;DHT22;33163;0.000;0.000;2023-02-28T14:28:17;20.10;42.20
47414;DHT22;33163;0.000;0.000;2023-02-28T14:31:04;20.10;42.50
47414;DHT22;33163;0.000;0.000;2023-02-28T14:33:50;20.10;42.50
47414;DHT22;33163;0.000;0.000;2023-02-28T14:36:27;20.10;41.90
47414;DHT22;33163;0.000;0.000;2023-02-28T14:39:00;20.00;41.50
47414;DHT22;33163;0.000;0.000;2023-02-28T14:41:34;20.00;41.30
47414;DHT22;33163;0.000;0.000;2023-02-28T14:44:13;20.00;41.20
47414;DHT22;33163;0.000;0.000;2023-02-28T14:46:41;19.90;41.10
47414;DHT22;33163;0.000;0.000;2023-02-28T14:49:19;19.90;41.00
47414;DHT22;33163;0.000;0.000;2023-02-28T14:51:47;19.80;41.10
47414;DHT22;33163;0.000;0.000;2023-02-28T14:54:19;19.80;41.70
47414;DHT22;33163;0.000;0.000;2023-02-28T14:56:50;19.70;41.80
47414;DHT22;33163;0.000;0.000;2023-02-28T14:59:31;19.70;41.90
47414;DHT22;33163;0.000;0.000;2023-02-28T15:02:21;19.60;41.90
47414;DHT22;33163;0.000;0.000;2023-02-28T15:04:55;19.60;42.00
47414;DHT22;33163;0.000;0.000;2023-02-28T15:07:23;19.60;41.90
47414;DHT22;33163;0.000;0.000;2023-02-28T15:10:13;19.50;41.80
47414;DHT22;33163;0.000;0.000;2023-02-28T15:12:52;19.50;41.60
47414;DHT22;33163;0.000;0.000;2023-02-28T15:15:20;19.40;42.10
47414;DHT22;33163;0.000;0.000;2023-02-28T15:17:51;19.30;42.00
47414;DHT22;33163;0.000;0.000;2023-02-28T15:20:20;19.30;42.00
47414;DHT22;33163;0.000;0.000;2023-02-28T15:22:50;19.30;41.90
47414;DHT22;33163;0.000;0.000;2023-02-28T15:25:21;19.20;41.90
47414;DHT22;33163;0.000;0.000;2023-02-28T15:27:50;19.20;41.70
47414;DHT22;33163;0.000;0.000;2023-02-28T15:30:21;19.20;41.90
47414;DHT22;33163;0.000;0.000;2023-02-28T15:33:03;19.20;41.80
47414;DHT22;33163;0.000;0.000;2023-02-28T15:35:32;19.10;41.60
47414;DHT22;33163;0.000;0.000;2023-02-28T15:38:01;19.10;41.70
47414;DHT22;33163;0.000;0.000;2023-02-28T15:40:37;19.10;41.80
47414;DHT22;33163;0.000;0.000;2023-02-28T15:43:06;19.10;42.70
47414;DHT22;33163;0.000;0.000;2023-02-28T15:45:36;19.10;42.80
47414;DHT22;33163;0.000;0.000;2023-02-28T15:48:04;19.00;41.70
47414;DHT22;33163;0.000;0.000;2023-02-28T15:50:31;19.00;41.80
47414;DHT22;33163;0.000;0.000;2023-02-28T15:53:00;19.00;42.00
47414;DHT22;33163;0.000;0.000;2023-02-28T15:55:29;18.90;41.80
47414;DHT22;33163;0.000;0.000;2023-02-28T15:58:00;18.90;41.70
47414;DHT22;33163;0.000;0.000;2023-02-28T16:00:29;18.90;41.70
47414;DHT22;33163;0.000;0.000;2023-02-28T16:02:58;18.90;41.70
47414;DHT22;33163;0.000;0.000;2023-02-28T16:05:27;18.90;41.60
47414;DHT22;33163;0.000;0.000;2023-02-28T16:07:59;18.90;41.50
47414;DHT22;33163;0.000;0.000;2023-02-28T16:10:28;18.80;41.40
47414;DHT22;33163;0.000;0.000;2023-02-28T16:12:55;18.90;41.70
47414;DHT22;33163;0.000;0.000;2023-02-28T16:15:26;18.90;41.30
47414;DHT22;33163;0.000;0.000;2023-02-28T16:17:55;19.00;41.00
47414;DHT22;33163;0.000;0.000;2023-02-28T16:20:24;19.00;41.00
47414;DHT22;33163;0.000;0.000;2023-02-28T16:22:51;19.10;40.90
47414;DHT22;33163;0.000;0.000;2023-02-28T16:25:21;19.10;40.80